Resende, Brazil
Current Conditions -  °F | °C
As of 4:00 AM on Thursday 23 Oct 2014 (Local Time) from SBSC Reporting Station
Broken Clouds Broken Clouds  
Wind Chill: 68°   Ceiling: 3500
Heat Index: 68°   Visibility: 6mi
Dew Point: 59°   Wind: 0mph
Humidity: 73%   Direction: NA
Pressure: 30.18"   Gusts: NA
Location:  22.46°S, 44.45°W
Report Text: SBSC 230600Z 00000KT 9999 BKN035 20/15 Q1022
Loading
Personal Weather Stations






























Interactive Weather Map
Tropical Storm Tracking
New forecast layout! Learn more

10-Day Weather Forecast

Advertisements
Track Severe Weather on mobile